Time;durP1;ratioP1;P1;durP2;ratioP2;P2;SDS_P1;SDS_P2;PMS_P1;PMS_P2;Temp;Humidity;BMP_temperature;BMP_pressure;BME280_temperature;BME280_humidity;BME280_pressure;Samples;Min_cycle;Max_cycle;Signal;HPM_P1;HPM_P2
2021/05/29 00:01:16;;;;;;;9.90;6.85;;;;;;;19.33;72.56;100221.44;1782204;80;21593;-71
2021/05/29 00:03:43;;;;;;;11.68;6.90;;;;;;;19.33;72.56;100220.11;1782319;80;20898;-71
2021/05/29 00:06:11;;;;;;;8.33;6.22;;;;;;;19.33;72.66;100218.77;1782088;80;21090;-72
2021/05/29 00:08:38;;;;;;;13.38;7.20;;;;;;;19.35;72.70;100217.63;1782218;80;21072;-72
2021/05/29 00:11:04;;;;;;;14.07;6.33;;;;;;;19.35;72.90;100222.11;1782366;79;21012;-70
2021/05/29 00:13:31;;;;;;;8.43;5.97;;;;;;;19.33;73.07;100226.25;1782219;79;20854;-69
2021/05/29 00:15:58;;;;;;;7.60;6.35;;;;;;;19.28;73.19;100233.87;1790532;80;20929;-70
2021/05/29 00:18:25;;;;;;;13.22;7.35;;;;;;;19.21;73.16;100246.97;1791338;80;21497;-69
2021/05/29 00:20:52;;;;;;;17.73;7.50;;;;;;;19.14;72.83;100241.09;1791415;80;20913;-71
2021/05/29 00:23:19;;;;;;;18.48;10.08;;;;;;;19.07;72.93;100230.75;1791528;78;21343;-70
2021/05/29 00:25:46;;;;;;;14.70;8.90;;;;;;;19.02;73.13;100221.92;1791504;80;20969;-72
2021/05/29 00:29:23;;;;;;;21.75;11.05;;;;;;;19.07;73.24;100227.59;1776553;79;22618;-69
2021/05/29 00:31:50;;;;;;;19.65;11.12;;;;;;;19.04;73.30;100251.34;1749345;82;20938;-71
2021/05/29 00:34:16;;;;;;;16.40;9.98;;;;;;;19.06;73.32;100244.55;1749472;82;21073;-71
2021/05/29 00:36:43;;;;;;;16.85;11.18;;;;;;;19.06;73.28;100240.56;1749309;82;20935;-71
2021/05/29 00:39:10;;;;;;;25.85;10.90;;;;;;;19.05;73.24;100241.06;1749370;82;20974;-71
2021/05/29 00:41:37;;;;;;;16.87;10.75;;;;;;;19.09;73.33;100235.42;1749377;82;20943;-70
2021/05/29 00:44:05;;;;;;;19.80;10.75;;;;;;;19.11;73.08;100230.28;1749336;81;21399;-70
2021/05/29 00:46:32;;;;;;;20.48;10.90;;;;;;;19.16;73.03;100229.80;1749413;82;21054;-68
2021/05/29 00:49:01;;;;;;;19.73;11.25;;;;;;;19.21;72.91;100236.84;1749350;82;20974;-70
2021/05/29 00:51:29;;;;;;;22.13;11.12;;;;;;;19.23;72.80;100231.70;1749317;80;21442;-70
2021/05/29 00:53:56;;;;;;;18.40;11.95;;;;;;;19.26;72.73;100229.21;1749368;81;20957;-70
2021/05/29 00:56:24;;;;;;;20.05;10.93;;;;;;;19.28;72.56;100230.39;1749341;82;21348;-70
2021/05/29 00:58:50;;;;;;;18.90;11.20;;;;;;;19.29;72.41;100230.21;1749368;82;21080;-70
2021/05/29 01:01:17;;;;;;;17.92;11.20;;;;;;;19.30;72.28;100233.22;1749467;82;20970;-70
2021/05/29 01:03:45;;;;;;;18.15;11.57;;;;;;;19.32;72.20;100239.70;1749292;80;21411;-71
2021/05/29 01:06:13;;;;;;;18.82;11.53;;;;;;;19.33;72.25;100240.87;1749281;80;20938;-71
2021/05/29 01:08:41;;;;;;;20.02;11.33;;;;;;;19.33;72.26;100244.86;1749207;82;20895;-71
2021/05/29 01:11:10;;;;;;;18.17;11.12;;;;;;;19.33;72.22;100244.86;1720178;82;21487;-70
2021/05/29 01:13:38;;;;;;;21.35;10.98;;;;;;;19.34;72.13;100237.71;1749094;82;21506;-70
2021/05/29 01:16:42;;;;;;;13.95;10.50;;;;;;;19.34;72.02;100233.25;1751008;82;21362;-70
2021/05/29 01:18:46;;;;;;;19.55;11.68;;;;;;;19.33;72.01;100227.58;1747144;82;20990;-71
2021/05/29 01:21:14;;;;;;;14.75;12.07;;;;;;;19.32;72.01;100225.92;1750104;82;20981;-71
2021/05/29 01:23:41;;;;;;;17.75;11.20;;;;;;;19.32;72.00;100219.28;1750659;82;20930;-67
2021/05/29 01:26:08;;;;;;;18.17;11.63;;;;;;;19.31;71.80;100218.92;1751293;82;20977;-70
2021/05/29 01:28:35;;;;;;;19.17;11.48;;;;;;;19.30;71.69;100219.94;1749766;81;20981;-71
2021/05/29 01:31:07;;;;;;;19.75;10.10;;;;;;;19.29;71.65;100216.92;1698851;82;21372;-71
2021/05/29 01:33:36;;;;;;;16.32;10.35;;;;;;;19.29;71.64;100224.89;1750177;82;21368;-70
2021/05/29 01:36:06;;;;;;;15.00;8.65;;;;;;;19.26;71.69;100227.37;1750049;82;21082;-70
2021/05/29 01:38:36;;;;;;;17.23;8.93;;;;;;;19.26;71.47;100225.22;1749996;80;20922;-69
2021/05/29 01:41:09;;;;;;;16.17;10.03;;;;;;;19.25;71.23;100230.19;1749568;81;20843;-69
2021/05/29 01:43:40;;;;;;;19.20;9.83;;;;;;;19.24;71.30;100238.66;1749762;82;20982;-70
2021/05/29 01:46:09;;;;;;;18.95;9.20;;;;;;;19.24;71.34;100236.01;1749437;82;20997;-71
2021/05/29 01:48:39;;;;;;;15.15;9.50;;;;;;;19.22;71.35;100236.66;1749478;82;21064;-69
2021/05/29 01:51:06;;;;;;;15.23;9.28;;;;;;;19.21;71.33;100241.65;1749386;80;20978;-70
2021/05/29 01:53:32;;;;;;;18.92;8.35;;;;;;;19.22;71.21;100237.98;1749463;82;20898;-70
2021/05/29 01:56:00;;;;;;;17.05;9.00;;;;;;;19.22;71.33;100234.50;1749393;82;21420;-70
2021/05/29 01:58:27;;;;;;;12.18;8.15;;;;;;;19.23;71.39;100234.35;1749633;82;20945;-71
2021/05/29 02:00:54;;;;;;;16.20;7.87;;;;;;;19.23;71.39;100234.35;1749611;82;21049;-71
2021/05/29 02:03:21;;;;;;;11.88;7.47;;;;;;;19.24;71.34;100233.84;1749565;82;20886;-70
2021/05/29 02:05:49;;;;;;;14.23;7.22;;;;;;;19.25;71.19;100237.69;1749448;82;20993;-71
2021/05/29 02:08:16;;;;;;;10.85;7.33;;;;;;;19.26;71.09;100231.88;1749393;82;21017;-69
2021/05/29 02:10:46;;;;;;;13.62;6.92;;;;;;;19.25;70.99;100220.88;1749449;81;20871;-71
2021/05/29 02:13:32;;;;;;;10.72;6.45;;;;;;;19.23;70.95;100219.73;1749429;81;20878;-70
2021/05/29 02:16:00;;;;;;;8.80;6.58;;;;;;;19.22;70.84;100215.89;1749367;82;20910;-70
2021/05/29 02:18:27;;;;;;;11.30;6.22;;;;;;;19.20;70.91;100219.20;1749453;82;20985;-71
2021/05/29 02:21:04;;;;;;;9.30;6.95;;;;;;;19.17;71.08;100216.87;1749597;80;20926;-70
2021/05/29 02:23:34;;;;;;;10.38;6.35;;;;;;;19.15;71.13;100209.55;1749575;80;20894;-70
2021/05/29 02:26:04;;;;;;;14.85;6.10;;;;;;;19.12;71.35;100206.71;1749469;81;21059;-69
2021/05/29 02:28:32;;;;;;;10.00;6.80;;;;;;;19.11;71.43;100205.53;1743988;81;20979;-70
2021/05/29 02:30:59;;;;;;;13.22;6.65;;;;;;;19.09;71.46;100203.02;1735493;81;20974;-70
2021/05/29 02:33:26;;;;;;;14.58;7.58;;;;;;;19.10;71.43;100212.68;1735452;82;21027;-70
2021/05/29 02:35:53;;;;;;;10.78;6.33;;;;;;;19.12;71.46;100217.34;1735474;82;21046;-69
2021/05/29 02:38:21;;;;;;;13.98;6.47;;;;;;;19.15;71.41;100213.53;1735495;82;21097;-69
2021/05/29 02:40:48;;;;;;;15.20;6.70;;;;;;;19.15;71.45;100218.34;1735348;82;21002;-70
2021/05/29 02:43:15;;;;;;;10.75;6.75;;;;;;;19.14;71.48;100218.50;1735639;82;21077;-70
2021/05/29 02:45:44;;;;;;;13.43;6.55;;;;;;;19.13;71.58;100226.14;1735497;82;20879;-70
2021/05/29 02:48:12;;;;;;;11.38;6.58;;;;;;;19.13;71.73;100220.33;1735411;82;20923;-70
2021/05/29 02:50:39;;;;;;;8.60;7.15;;;;;;;19.13;71.76;100222.16;1735466;81;21041;-71
2021/05/29 02:53:07;;;;;;;15.55;6.65;;;;;;;19.11;71.76;100215.66;1735396;82;21014;-69
2021/05/29 02:55:34;;;;;;;10.82;6.72;;;;;;;19.10;71.87;100215.34;1735441;81;20923;-69
2021/05/29 02:58:01;;;;;;;10.10;6.28;;;;;;;19.05;71.98;100207.84;1735531;81;21460;-70
2021/05/29 03:00:31;;;;;;;9.85;5.90;;;;;;;19.01;72.29;100210.47;1735545;81;20947;-71
2021/05/29 03:02:59;;;;;;;12.03;6.25;;;;;;;19.01;72.42;100205.16;1735372;82;21055;-72
2021/05/29 03:05:26;;;;;;;7.12;5.62;;;;;;;19.08;72.43;100205.86;1735520;82;21376;-71
2021/05/29 03:07:53;;;;;;;16.52;6.33;;;;;;;19.11;72.29;100199.72;1735503;82;20954;-70
2021/05/29 03:10:20;;;;;;;7.33;6.20;;;;;;;19.18;72.32;100203.91;1735477;81;20899;-70
2021/05/29 03:12:47;;;;;;;15.53;7.08;;;;;;;19.28;72.18;100198.48;1735463;82;20895;-70
2021/05/29 03:15:19;;;;;;;10.58;7.20;;;;;;;19.39;71.90;100195.55;1735529;81;21113;-70
2021/05/29 03:17:46;;;;;;;17.70;9.45;;;;;;;19.46;71.58;100199.22;1735285;82;21029;-70
2021/05/29 03:20:16;;;;;;;11.70;7.45;;;;;;;19.50;71.37;100193.92;1735379;82;20899;-69
2021/05/29 03:22:43;;;;;;;12.03;5.90;;;;;;;19.54;71.26;100195.27;1735396;82;21401;-70
2021/05/29 03:25:12;;;;;;;9.60;6.15;;;;;;;19.58;71.14;100192.60;1735457;81;20910;-71
2021/05/29 03:27:39;;;;;;;8.45;5.85;;;;;;;19.59;71.20;100189.47;1735379;81;21141;-72
2021/05/29 03:30:10;;;;;;;9.35;6.28;;;;;;;19.63;71.18;100192.12;1747888;80;21533;-70
2021/05/29 03:32:37;;;;;;;16.40;6.80;;;;;;;19.69;71.18;100184.86;1748929;82;20949;-69
2021/05/29 03:35:06;;;;;;;11.73;6.65;;;;;;;19.80;71.02;100193.05;1749421;82;20878;-71
2021/05/29 03:37:32;;;;;;;14.38;7.25;;;;;;;19.90;70.96;100192.41;1749558;82;21403;-70
2021/05/29 03:40:00;;;;;;;8.08;7.00;;;;;;;19.98;70.66;100187.08;1749440;82;21064;-70
2021/05/29 03:42:27;;;;;;;15.60;7.83;;;;;;;20.04;70.25;100183.77;1749339;82;21017;-71
2021/05/29 03:44:54;;;;;;;8.95;5.75;;;;;;;20.06;70.09;100185.78;1749432;82;20886;-70
2021/05/29 03:47:21;;;;;;;7.03;6.10;;;;;;;20.09;70.04;100184.61;1749306;82;20902;-71
2021/05/29 03:49:48;;;;;;;10.18;5.72;;;;;;;20.13;69.95;100189.12;1749421;82;20966;-71
2021/05/29 03:52:16;;;;;;;27.62;7.55;;;;;;;20.17;70.01;100190.46;1749257;82;21486;-70
2021/05/29 03:54:44;;;;;;;11.83;7.00;;;;;;;20.23;70.07;100193.77;1749400;82;21294;-71
2021/05/29 03:57:11;;;;;;;15.95;10.25;;;;;;;20.28;69.84;100194.95;1749355;80;20986;-72
2021/05/29 03:59:37;;;;;;;8.78;7.83;;;;;;;20.34;69.81;100195.28;1749269;80;20973;-71
2021/05/29 04:02:05;;;;;;;12.50;7.37;;;;;;;20.40;69.54;100199.95;1749456;82;21948;-70
2021/05/29 04:04:34;;;;;;;14.47;7.50;;;;;;;20.46;69.08;100197.45;1749407;80;21059;-73
2021/05/29 04:07:01;;;;;;;12.00;7.05;;;;;;;20.53;68.85;100200.78;1749352;80;20926;-72
2021/05/29 04:09:29;;;;;;;13.08;6.95;;;;;;;20.57;68.79;100194.16;1749413;82;20989;-72
2021/05/29 04:11:56;;;;;;;7.37;5.87;;;;;;;20.60;68.86;100196.48;1749300;81;21009;-69
2021/05/29 04:14:23;;;;;;;19.17;6.97;;;;;;;20.66;68.79;100190.48;1749327;82;20914;-71
2021/05/29 04:16:50;;;;;;;14.20;7.22;;;;;;;20.77;68.48;100191.98;1749485;80;21062;-71
2021/05/29 04:19:17;;;;;;;8.78;7.37;;;;;;;20.96;68.33;100183.59;1749517;82;21009;-70
2021/05/29 04:21:45;;;;;;;10.95;6.67;;;;;;;21.18;67.87;100185.20;1749552;82;20891;-72
2021/05/29 04:24:12;;;;;;;12.05;6.92;;;;;;;21.51;67.05;100177.42;1749386;82;21120;-72
2021/05/29 04:26:40;;;;;;;14.30;6.85;;;;;;;21.82;66.15;100177.11;1749484;82;20958;-71
2021/05/29 04:29:07;;;;;;;8.15;5.37;;;;;;;22.24;64.99;100186.02;1749321;81;21097;-70
2021/05/29 04:31:34;;;;;;;11.03;5.33;;;;;;;22.75;64.10;100182.75;1749537;82;20977;-70
2021/05/29 04:34:01;;;;;;;9.43;5.67;;;;;;;23.38;62.57;100177.88;1749356;81;20890;-72
2021/05/29 04:36:28;;;;;;;10.10;6.20;;;;;;;23.95;60.87;100173.12;1749259;82;21538;-72
2021/05/29 04:38:55;;;;;;;8.03;5.70;;;;;;;24.50;59.31;100168.09;1749461;82;21033;-72
2021/05/29 04:41:22;;;;;;;10.32;6.10;;;;;;;25.05;57.61;100164.72;1749438;82;21692;-71
2021/05/29 04:43:49;;;;;;;6.47;5.78;;;;;;;25.31;55.25;100166.23;1749336;82;21013;-73
2021/05/29 04:46:17;;;;;;;10.32;6.42;;;;;;;25.57;54.10;100168.72;1749461;80;21053;-73
2021/05/29 04:48:45;;;;;;;7.40;5.70;;;;;;;25.78;53.72;100169.91;1749394;82;20922;-71
2021/05/29 04:51:12;;;;;;;7.05;5.47;;;;;;;26.04;52.75;100175.88;1749417;82;21332;-72
2021/05/29 04:53:45;;;;;;;10.55;5.47;;;;;;;26.28;52.16;100173.64;1749440;82;21062;-72
2021/05/29 04:56:13;;;;;;;8.03;4.92;;;;;;;26.52;51.68;100172.17;1749322;82;20930;-72
2021/05/29 04:58:40;;;;;;;6.08;5.10;;;;;;;26.73;50.39;100173.86;1750184;80;20942;-70
2021/05/29 05:01:08;;;;;;;7.53;5.25;;;;;;;26.91;49.88;100171.86;1751874;82;20890;-73
2021/05/29 05:03:37;;;;;;;6.90;5.15;;;;;;;27.02;49.55;100171.21;1752054;82;20961;-71
2021/05/29 05:06:04;;;;;;;8.63;5.03;;;;;;;27.16;49.08;100171.99;1751508;80;21074;-72
2021/05/29 05:08:31;;;;;;;5.65;5.00;;;;;;;27.32;48.93;100172.59;1752763;80;20875;-72
2021/05/29 05:11:00;;;;;;;6.92;4.78;;;;;;;27.59;48.59;100165.22;1749754;81;21507;-72
2021/05/29 05:13:29;;;;;;;5.97;5.35;;;;;;;27.78;47.86;100171.55;1749185;80;20978;-71
2021/05/29 05:15:56;;;;;;;6.67;5.22;;;;;;;27.99;47.07;100164.52;1749624;80;20950;-71
2021/05/29 05:18:23;;;;;;;9.08;5.28;;;;;;;28.26;46.63;100169.19;1749430;82;21019;-70
2021/05/29 05:20:50;;;;;;;13.03;7.37;;;;;;;28.47;46.10;100164.45;1749326;80;21498;-71
2021/05/29 05:23:21;;;;;;;7.78;5.25;;;;;;;28.70;45.87;100165.19;1749569;82;20982;-72
2021/05/29 05:25:46;;;;;;;5.55;4.60;;;;;;;29.00;45.06;100161.25;1749397;82;20954;-70
2021/05/29 05:28:13;;;;;;;6.47;4.78;;;;;;;29.11;44.00;100162.41;1749546;82;20961;-73
2021/05/29 05:30:41;;;;;;;8.98;5.00;;;;;;;29.17;43.77;100163.38;1737324;82;21461;-72
2021/05/29 05:33:08;;;;;;;7.33;4.67;;;;;;;29.18;43.59;100155.05;1735479;82;21001;-72
2021/05/29 05:35:36;;;;;;;5.03;4.20;;;;;;;29.30;43.98;100157.31;1735532;81;20963;-71
2021/05/29 05:38:03;;;;;;;10.40;4.90;;;;;;;29.58;43.43;100156.43;1735528;81;20891;-72
2021/05/29 05:40:30;;;;;;;7.83;4.85;;;;;;;29.90;42.72;100144.36;1735742;81;20930;-71
2021/05/29 05:42:57;;;;;;;5.97;3.67;;;;;;;30.15;42.52;100141.46;1735513;81;21013;-72
2021/05/29 05:45:24;;;;;;;8.48;4.17;;;;;;;30.44;42.40;100143.50;1735542;82;20935;-72
2021/05/29 05:47:51;;;;;;;4.97;3.65;;;;;;;30.81;40.96;100144.08;1735514;82;20899;-71
2021/05/29 05:50:18;;;;;;;5.72;3.83;;;;;;;31.22;39.97;100136.03;1735560;82;21499;-71
2021/05/29 05:52:45;;;;;;;12.85;4.70;;;;;;;31.59;39.29;100136.48;1735792;82;20930;-72
2021/05/29 05:55:13;;;;;;;7.50;3.37;;;;;;;31.93;38.49;100129.79;1735642;81;20956;-73
2021/05/29 05:57:41;;;;;;;7.22;3.92;;;;;;;32.25;37.78;100124.63;1735437;82;20863;-71
2021/05/29 06:00:13;;;;;;;6.25;3.47;;;;;;;32.49;37.72;100122.55;1735595;81;20943;-72
2021/05/29 06:02:42;;;;;;;5.75;3.67;;;;;;;32.53;37.11;100123.73;1735602;82;21456;-72
2021/05/29 06:05:10;;;;;;;9.88;3.85;;;;;;;32.30;37.20;100120.62;1735577;81;21077;-72
2021/05/29 06:07:37;;;;;;;5.97;3.00;;;;;;;32.01;37.45;100115.83;1735522;82;21786;-72
2021/05/29 06:10:06;;;;;;;7.58;3.37;;;;;;;31.74;38.26;100126.47;1735396;82;20899;-72
2021/05/29 06:12:34;;;;;;;5.67;2.75;;;;;;;31.67;37.27;100116.31;1735592;82;21507;-73
2021/05/29 06:20:32;;;;;;;6.72;3.10;;;;;;;32.01;36.21;100110.41;1735547;81;21204;-71
2021/05/29 06:22:59;;;;;;;10.68;4.58;;;;;;;32.15;36.07;100115.80;1735359;82;20966;-71
2021/05/29 06:25:25;;;;;;;8.18;3.60;;;;;;;32.40;35.28;100110.48;1735546;81;20903;-72
2021/05/29 06:27:52;;;;;;;7.10;3.22;;;;;;;32.60;35.74;100109.98;1735507;82;20871;-72
2021/05/29 06:30:20;;;;;;;7.47;3.30;;;;;;;32.60;35.49;100105.36;1743371;81;20946;-72
2021/05/29 06:32:47;;;;;;;3.35;3.05;;;;;;;32.46;35.55;100105.42;1749359;82;21538;-73
2021/05/29 06:35:14;;;;;;;6.08;3.20;;;;;;;32.25;35.36;100101.56;1749477;82;20859;-74
2021/05/29 06:37:41;;;;;;;7.00;3.00;;;;;;;31.97;35.37;100106.53;1749488;82;20862;-73
2021/05/29 06:40:09;;;;;;;12.00;4.28;;;;;;;31.65;35.67;100100.82;1749531;82;21009;-71
2021/05/29 06:42:35;;;;;;;6.35;2.98;;;;;;;31.37;36.49;100107.86;1749437;80;21038;-72
2021/05/29 06:45:04;;;;;;;9.93;3.80;;;;;;;31.13;36.71;100106.61;1749446;80;21509;-77
2021/05/29 06:47:31;;;;;;;6.10;2.87;;;;;;;30.96;36.72;100108.41;1749502;82;20922;-76
2021/05/29 06:49:59;;;;;;;4.20;2.58;;;;;;;30.81;37.22;100104.81;1749535;82;21415;-76
2021/05/29 06:52:31;;;;;;;6.45;2.90;;;;;;;30.78;37.81;100102.59;1749471;82;21033;-76
2021/05/29 07:00:28;;;;;;;4.62;2.22;;;;;;;30.90;37.83;100101.23;1749265;82;22784;-78
2021/05/29 07:02:55;;;;;;;5.22;2.55;;;;;;;30.98;37.54;100102.23;1749416;82;20858;-76
2021/05/29 07:05:22;;;;;;;5.92;2.08;;;;;;;31.26;37.66;100105.51;1749519;82;20950;-82
2021/05/29 07:07:50;;;;;;;9.20;2.77;;;;;;;31.58;36.92;100104.50;1749591;82;20934;-82
2021/05/29 07:10:17;;;;;;;9.25;2.98;;;;;;;31.96;36.01;100108.95;1749402;82;21055;-81
2021/05/29 07:12:44;;;;;;;5.60;2.20;;;;;;;32.35;35.27;100109.88;1749386;82;21058;-81
2021/05/29 07:15:12;;;;;;;4.25;1.77;;;;;;;32.56;34.62;100111.00;1722136;82;21383;-80
2021/05/29 07:17:42;;;;;;;6.50;2.25;;;;;;;32.92;33.56;100113.38;1749381;80;21014;-80
2021/05/29 07:20:11;;;;;;;3.12;2.30;;;;;;;33.13;33.02;100109.88;1749506;82;20922;-80
2021/05/29 07:22:38;;;;;;;6.25;2.45;;;;;;;33.17;32.72;100108.81;1749319;82;21060;-80
2021/05/29 07:25:07;;;;;;;7.10;2.60;;;;;;;33.11;32.25;100101.16;1749350;82;21482;-80
2021/05/29 07:27:34;;;;;;;9.05;3.05;;;;;;;33.07;33.42;100101.91;1749435;82;20886;-79
2021/05/29 07:30:07;;;;;;;5.50;2.10;;;;;;;33.07;32.69;100096.48;1745581;81;20946;-69
2021/05/29 07:32:29;;;;;;;7.37;2.20;;;;;;;33.01;33.23;100100.98;1734992;82;20931;-83
2021/05/29 07:34:56;;;;;;;7.97;2.40;;;;;;;33.21;33.02;100101.25;1735448;81;21149;-81
2021/05/29 07:37:27;;;;;;;5.22;2.20;;;;;;;33.27;32.17;100093.98;1735463;82;20915;-82
2021/05/29 07:39:54;;;;;;;6.95;2.95;;;;;;;33.17;32.56;100091.14;1735381;82;21022;-82
2021/05/29 07:42:21;;;;;;;5.50;2.55;;;;;;;33.33;32.58;100089.41;1735538;82;20919;-78
2021/05/29 07:44:48;;;;;;;6.92;2.20;;;;;;;33.55;32.47;100081.20;1735479;82;20935;-81
2021/05/29 07:47:17;;;;;;;8.28;2.52;;;;;;;33.69;32.26;100074.85;1735562;82;21814;-69
2021/05/29 07:49:45;;;;;;;6.65;3.00;;;;;;;33.68;32.56;100067.21;1715453;82;21401;-68
2021/05/29 07:52:12;;;;;;;4.40;2.85;;;;;;;33.54;32.20;100068.15;1735398;82;20911;-67
2021/05/29 07:54:39;;;;;;;4.20;2.22;;;;;;;33.29;32.30;100074.17;1735495;82;20927;-67
2021/05/29 07:57:09;;;;;;;5.72;2.70;;;;;;;32.99;32.77;100071.89;1735707;82;21428;-68
2021/05/29 07:59:37;;;;;;;10.50;2.67;;;;;;;32.75;33.09;100064.02;1738218;80;21083;-85
2021/05/29 08:02:05;;;;;;;14.33;4.58;;;;;;;32.77;33.61;100072.73;1739197;78;20891;-82
2021/05/29 08:04:33;;;;;;;6.78;2.50;;;;;;;32.64;32.96;100064.97;1739308;82;20891;-77
2021/05/29 08:07:01;;;;;;;8.75;3.22;;;;;;;32.56;33.53;100066.75;1736753;82;21440;-67
2021/05/29 08:09:29;;;;;;;8.45;2.80;;;;;;;32.57;33.43;100061.08;1735489;82;20942;-68
2021/05/29 08:11:57;;;;;;;6.72;3.45;;;;;;;32.67;34.10;100060.38;1735440;82;21102;-68
2021/05/29 08:14:25;;;;;;;10.48;3.52;;;;;;;32.67;34.01;100048.70;1735389;82;20895;-68
2021/05/29 08:16:52;;;;;;;9.60;3.17;;;;;;;32.58;33.38;100053.20;1735419;82;20926;-68
2021/05/29 08:19:20;;;;;;;10.05;3.65;;;;;;;32.28;33.77;100053.56;1735249;82;20966;-67
2021/05/29 08:21:50;;;;;;;11.33;3.95;;;;;;;32.01;34.15;100048.83;1735452;82;20955;-78
2021/05/29 08:24:17;;;;;;;6.05;3.98;;;;;;;31.75;35.01;100043.53;1735442;82;21747;-73
2021/05/29 08:26:45;;;;;;;10.08;7.58;;;;;;;31.45;35.31;100045.17;1735491;82;20934;-69
2021/05/29 08:29:14;;;;;;;12.33;5.20;;;;;;;31.11;35.86;100046.97;1735387;81;20974;-73
2021/05/29 08:31:43;;;;;;;16.93;4.97;;;;;;;30.74;36.15;100042.67;1747429;80;20887;-79
2021/05/29 08:34:10;;;;;;;11.40;4.72;;;;;;;30.55;36.59;100042.56;1749921;82;20970;-71
2021/05/29 08:36:37;;;;;;;6.70;3.67;;;;;;;30.50;36.66;100045.14;1749643;81;21121;-71
2021/05/29 08:39:05;;;;;;;8.50;3.75;;;;;;;30.81;37.15;100039.02;1750223;80;21403;-72
2021/05/29 08:41:32;;;;;;;13.85;4.60;;;;;;;31.27;36.95;100040.76;1752768;82;20910;-73
2021/05/29 08:43:59;;;;;;;10.58;3.67;;;;;;;31.82;36.37;100033.87;1752537;82;20926;-70
2021/05/29 08:46:27;;;;;;;5.83;3.75;;;;;;;32.39;35.43;100028.75;1750611;82;20949;-75
2021/05/29 08:48:55;;;;;;;9.43;3.90;;;;;;;32.88;34.35;100027.48;1752423;80;21664;-74
2021/05/29 08:51:22;;;;;;;11.40;3.90;;;;;;;33.30;33.22;100021.98;1750058;80;21037;-72
2021/05/29 08:53:53;;;;;;;8.05;3.40;;;;;;;33.73;32.82;100023.75;1749494;80;20966;-74
2021/05/29 08:56:23;;;;;;;15.43;3.45;;;;;;;34.16;32.83;100025.97;1748672;82;20985;-75
2021/05/29 08:58:50;;;;;;;9.88;3.20;;;;;;;34.54;31.48;100019.09;1749506;82;20914;-73
2021/05/29 09:01:17;;;;;;;8.50;2.60;;;;;;;34.65;30.29;100013.44;1749439;82;21050;-73
2021/05/29 09:03:54;;;;;;;14.33;3.45;;;;;;;34.61;30.62;100016.38;1749387;82;20875;-76
2021/05/29 09:06:36;;;;;;;10.30;3.95;;;;;;;34.65;30.67;100015.35;1749477;81;21396;-76
2021/05/29 09:09:06;;;;;;;6.62;2.95;;;;;;;34.87;31.41;100015.97;1749783;82;20922;-77
2021/05/29 09:11:50;;;;;;;6.30;2.80;;;;;;;35.14;30.20;100013.60;1749533;81;21455;-73
2021/05/29 09:14:32;;;;;;;8.10;2.95;;;;;;;35.36;29.78;100007.09;1749458;80;21109;-75
2021/05/29 09:17:09;;;;;;;8.95;2.90;;;;;;;35.57;29.10;100006.54;1749355;81;21396;-77
2021/05/29 09:20:09;;;;;;;11.08;3.15;;;;;;;35.56;28.83;100003.00;1749445;82;20890;-76
2021/05/29 09:22:58;;;;;;;12.03;3.20;;;;;;;35.33;28.11;100006.25;1749313;81;20954;-73
2021/05/29 09:25:26;;;;;;;14.70;4.67;;;;;;;35.04;28.84;100006.20;1725728;82;20929;-72
2021/05/29 09:28:02;;;;;;;10.68;3.98;;;;;;;34.95;28.88;100009.70;1749354;80;21043;-73
2021/05/29 09:30:51;;;;;;;5.67;2.85;;;;;;;34.84;29.14;100007.50;1749317;81;21030;-71
2021/05/29 09:33:27;;;;;;;7.05;2.70;;;;;;;34.59;28.87;100004.13;1748769;82;21424;-71
2021/05/29 09:36:01;;;;;;;8.13;4.20;;;;;;;34.30;29.77;100009.17;1748014;82;20930;-70
2021/05/29 09:38:55;;;;;;;9.88;4.42;;;;;;;33.90;30.25;100002.38;1749393;80;20985;-72
2021/05/29 09:41:32;;;;;;;11.43;4.30;;;;;;;33.51;29.94;99998.53;1749274;81;21104;-69
2021/05/29 09:44:06;;;;;;;11.83;3.37;;;;;;;33.14;31.09;99993.84;1749493;80;21507;-75
2021/05/29 09:46:55;;;;;;;9.20;3.20;;;;;;;32.88;31.10;99998.14;1749386;80;20894;-72
2021/05/29 09:49:26;;;;;;;6.78;3.58;;;;;;;32.69;31.32;100000.39;1749391;82;20914;-71
2021/05/29 09:51:53;;;;;;;8.35;3.47;;;;;;;32.50;32.41;99997.13;1749541;82;21403;-72
2021/05/29 09:54:20;;;;;;;8.60;3.92;;;;;;;32.37;32.90;99990.17;1749297;80;21871;-76
2021/05/29 09:56:47;;;;;;;6.97;3.33;;;;;;;32.42;33.10;99982.12;1698113;82;20989;-74
2021/05/29 09:59:17;;;;;;;8.30;3.00;;;;;;;32.64;33.03;99980.80;1749501;82;21376;-74
2021/05/29 10:01:50;;;;;;;8.30;2.47;;;;;;;32.99;32.59;99975.44;1749372;82;21391;-73
2021/05/29 10:04:37;;;;;;;7.53;2.37;;;;;;;33.34;32.39;99974.99;1749420;80;21017;-72
2021/05/29 10:07:06;;;;;;;8.60;2.85;;;;;;;33.81;31.88;99977.55;1749328;82;20944;-73
2021/05/29 10:09:33;;;;;;;8.38;2.45;;;;;;;34.23;31.02;99974.02;1749359;82;20890;-72
2021/05/29 10:12:01;;;;;;;12.13;3.52;;;;;;;34.59;30.20;99970.08;1749404;82;21423;-74
2021/05/29 10:14:30;;;;;;;7.75;3.30;;;;;;;34.84;29.27;99966.11;1749345;81;20978;-73
2021/05/29 10:17:07;;;;;;;9.55;3.85;;;;;;;35.01;28.42;99953.58;1721988;82;20942;-74
2021/05/29 10:19:36;;;;;;;5.60;2.60;;;;;;;35.07;28.79;99950.33;1749436;81;21431;-72
2021/05/29 10:22:10;;;;;;;4.72;2.67;;;;;;;35.06;28.76;99945.44;1749553;82;20894;-74
2021/05/29 10:24:40;;;;;;;8.75;2.85;;;;;;;35.08;29.26;99938.33;1749375;82;20962;-73
2021/05/29 10:27:13;;;;;;;7.83;2.55;;;;;;;34.92;28.34;99935.32;1749507;82;20963;-72
2021/05/29 10:29:41;;;;;;;8.05;2.62;;;;;;;34.49;28.16;99940.11;1749460;82;21502;-73
2021/05/29 10:32:12;;;;;;;7.75;2.70;;;;;;;33.98;28.76;99936.59;1738654;81;21089;-73
2021/05/29 10:35:09;;;;;;;7.65;2.27;;;;;;;33.52;28.78;99938.98;1735383;82;21513;-72
2021/05/29 10:37:44;;;;;;;6.05;2.58;;;;;;;33.08;29.25;99935.89;1735331;81;21518;-77
2021/05/29 10:40:28;;;;;;;9.15;2.55;;;;;;;32.64;30.77;99931.92;1735500;82;21467;-74
2021/05/29 10:43:16;;;;;;;4.40;2.55;;;;;;;32.33;30.75;99936.14;1735137;82;20879;-78
2021/05/29 10:45:57;;;;;;;11.50;2.52;;;;;;;32.12;31.28;99941.83;1735296;82;21092;-74
2021/05/29 10:48:27;;;;;;;4.77;2.10;;;;;;;31.83;32.02;99946.01;1735706;81;20891;-75
2021/05/29 10:51:08;;;;;;;6.85;2.72;;;;;;;31.54;32.72;99950.19;1735485;82;20860;-73
2021/05/29 10:53:54;;;;;;;8.20;2.55;;;;;;;31.29;32.59;99954.63;1735533;81;20919;-81
2021/05/29 10:56:26;;;;;;;7.62;2.55;;;;;;;30.98;32.68;99947.32;1735414;82;20899;-81
2021/05/29 10:59:18;;;;;;;7.72;3.08;;;;;;;30.69;34.10;99945.66;1735500;82;21400;-80
2021/05/29 11:01:54;;;;;;;9.58;2.62;;;;;;;30.50;35.47;99940.95;1735401;82;21085;-79
2021/05/29 11:04:22;;;;;;;10.20;2.47;;;;;;;30.41;35.13;99941.05;1735433;82;20915;-72
2021/05/29 11:06:54;;;;;;;6.35;2.00;;;;;;;30.32;35.13;99937.89;1735292;81;21491;-69
2021/05/29 11:09:47;;;;;;;6.72;3.33;;;;;;;30.30;35.00;99942.71;1735779;82;20903;-70
2021/05/29 11:12:15;;;;;;;8.10;2.22;;;;;;;30.28;36.09;99938.91;1735340;82;21053;-75
2021/05/29 11:14:56;;;;;;;8.28;2.58;;;;;;;30.22;36.06;99939.83;1735309;82;20907;-73
2021/05/29 11:17:25;;;;;;;6.60;2.40;;;;;;;30.14;35.68;99940.19;1735004;82;20922;-72
2021/05/29 11:20:22;;;;;;;4.17;2.22;;;;;;;30.03;36.49;99937.78;1735411;82;20971;-73
2021/05/29 11:22:49;;;;;;;12.82;3.75;;;;;;;29.97;36.67;99934.70;1735162;82;20863;-80
2021/05/29 11:25:21;;;;;;;10.23;3.47;;;;;;;29.87;37.29;99934.46;1735046;81;21089;-75
2021/05/29 11:27:49;;;;;;;;;;;;;;;29.72;37.79;99928.98;1737811;81;21006;-74
2021/05/29 11:30:26;;;;;;;7.87;2.75;;;;;;;29.51;38.03;99929.55;1735323;81;20486;-74
2021/05/29 11:32:59;;;;;;;9.63;3.15;;;;;;;29.31;37.95;99930.69;1748219;81;20938;-82
2021/05/29 11:35:49;;;;;;;7.87;3.62;;;;;;;29.13;38.34;99930.78;1749674;82;20875;-76
2021/05/29 11:38:19;;;;;;;16.45;4.53;;;;;;;28.90;38.88;99939.58;1747745;80;21156;-77
2021/05/29 11:41:08;;;;;;;12.45;4.70;;;;;;;28.66;40.73;99951.65;1749293;81;20989;-67
2021/05/29 11:43:48;;;;;;;13.05;3.80;;;;;;;28.39;42.98;99945.73;1748833;82;20985;-77
2021/05/29 11:46:18;;;;;;;9.00;3.35;;;;;;;28.04;44.58;99953.06;1749508;81;20962;-76